MSC Maya — 3FNF8 — position and weather

sailwx.info

Track history (hours):
 
Tides and Currents Weather Stations Pressure Air Temp Water Temp Dewpoint Dewpoint Depression Visibility Wind Speed Wind Dir Waves Ship Positions

MSC Maya

Last reported at 2016-May-22 18:33 UTC. Time now 2016-May-25 16:53 UTC.
Position N 01°26' E 104°31'.

Length 242 m; draft 7.4 m.

Type: Cargo ship. MMSI: 351384000.

Date/timePositionNaut miles runAvg speedWind from/ knotsBaromVisibWave heightAir tempDewpointWater temp
2016-May-22 18:33N 01°26' E 104°31'2813.9
2016-May-22 16:33N 01°15' E 104°06'1313.2
2016-May-22 15:33N 01°12' E 103°53'8 7.5
2016-May-22 14:26N 01°16' E 103°46'0 0.0
2016-May-22 13:33N 01°16' E 103°46'0 0.0
2016-May-22 12:33N 01°16' E 103°46'0 0.0
2016-May-22 11:29N 01°16' E 103°46'0 0.0
2016-May-22 10:33N 01°16' E 103°46'0 0.0
2016-May-22 09:21N 01°16' E 103°46'0 0.0
2016-May-22 08:29N 01°16' E 103°46'0 0.0
2016-May-22 07:33N 01°16' E 103°46'0 0.0
2016-May-22 06:28N 01°16' E 103°46'0 0.0
2016-May-22 05:22N 01°16' E 103°46'0 0.0
2016-May-22 04:32N 01°16' E 103°46'0 0.0
2016-May-22 03:33N 01°16' E 103°46'0 0.1
2016-May-22 02:33N 01°16' E 103°46'1 1.2
2016-May-22 01:34N 01°15' E 103°47'3 3.0
2016-May-22 00:33N 01°13' E 103°49'0 0.1
2016-May-21 23:24N 01°13' E 103°49'0 0.0
2016-May-21 21:15N 01°13' E 103°49'0 0.0
2016-May-21 20:27N 01°13' E 103°49'0 0.0
2016-May-21 19:33N 01°13' E 103°49'0 0.0
2016-May-21 18:27N 01°13' E 103°49'0 0.0
2016-May-21 17:33N 01°13' E 103°49'0 0.0
2016-May-21 16:21N 01°13' E 103°49'0 0.1
2016-May-21 15:24N 01°13' E 103°49'1 1.0
2016-May-21 14:33N 01°13' E 103°49'8 7.7
2016-May-21 13:33N 01°13' E 103°41'10 1.3
2016-May-21 05:33N 01°20' E 103°33'2 2.0
2016-May-21 04:30N 01°22' E 103°33'0 0.0
2016-May-21 02:12N 01°22' E 103°33'0 0.0
2016-May-21 01:32N 01°22' E 103°33'0 0.0
2016-May-21 00:33N 01°22' E 103°33'0 0.0
2016-May-20 23:18N 01°22' E 103°33'0 0.0
2016-May-20 22:26N 01°22' E 103°33'0 0.0
2016-May-20 19:32N 01°22' E 103°33'0 0.0
2016-May-20 18:33N 01°22' E 103°33'0 0.0
2016-May-20 17:32N 01°22' E 103°33'6 5.8
2016-May-20 16:31N 01°16' E 103°33'5 5.4
2016-May-20 15:33N 01°12' E 103°36'6 6.1
2016-May-20 14:33N 01°10' E 103°42'1010.2
2016-May-20 13:33N 01°12' E 103°52'1312.5
2016-May-20 12:33N 01°16' E 104°04'  
2016-May-15 19:18N 01°15' E 104°05'912.6
2016-May-15 18:33N 01°12' E 103°55'8 8.4
2016-May-15 17:33N 01°14' E 103°47'3 2.4
2016-May-15 16:29N 01°16' E 103°46'0 0.0
2016-May-15 15:28N 01°16' E 103°46'0 0.1
2016-May-15 14:28N 01°16' E 103°46'0 0.0
2016-May-15 13:32N 01°16' E 103°46'0 0.1
2016-May-15 12:23N 01°16' E 103°46'0 0.0
2016-May-15 11:32N 01°16' E 103°46'0 0.1
2016-May-15 10:23N 01°16' E 103°46'0 0.0
2016-May-15 09:32N 01°16' E 103°46'0 0.1
2016-May-15 08:29N 01°16' E 103°46'0 0.1
2016-May-15 07:32N 01°16' E 103°46'0 0.1
2016-May-15 06:32N 01°16' E 103°46'0 0.0
2016-May-15 05:32N 01°16' E 103°46'0 0.0
2016-May-15 04:32N 01°16' E 103°46'0 0.0
2016-May-15 03:32N 01°16' E 103°46'0 0.0
2016-May-15 02:33N 01°16' E 103°46'0 0.0
2016-May-15 01:33N 01°16' E 103°46'0 0.1
2016-May-15 00:28N 01°16' E 103°46'0 0.1
2016-May-14 23:28N 01°16' E 103°46'0 0.1
2016-May-14 22:33N 01°16' E 103°46'4 3.9
2016-May-14 21:32N 01°13' E 103°49'0 0.1
2016-May-14 20:11N 01°13' E 103°49'0 0.0
2016-May-14 19:17N 01°13' E 103°49'0 0.1
2016-May-14 18:32N 01°13' E 103°49'0 0.2
2016-May-14 17:33N 01°13' E 103°48'5 5.4
2016-May-14 16:33N 01°14' E 103°43'8 7.7
2016-May-14 15:33N 01°12' E 103°36'7 6.6
2016-May-14 14:31N 01°15' E 103°29'2 0.5
2016-May-14 11:26N 01°15' E 103°31'5 6.3
2016-May-14 10:33N 01°20' E 103°33'2 0.1
2016-May-13 16:23N 01°22' E 103°33'5 5.7
2016-May-13 15:32N 01°17' E 103°33'6 6.4
2016-May-13 14:33N 01°12' E 103°37'9 9.5
2016-May-13 13:33N 01°09' E 103°46'1515.4
2016-May-13 12:34N 01°16' E 103°60'  
Track history (hours):
 
Tides and Currents Weather Stations Pressure Air Temp Water Temp Dewpoint Dewpoint Depression Visibility Wind Speed Wind Dir Waves Ship Positions

MSC Maya

Last reported at 2016-May-22 18:33 UTC. Time now 2016-May-25 16:53 UTC.
Position N 01°26' E 104°31'.

Length 242 m; draft 7.4 m.

Type: Cargo ship. MMSI: 351384000.

Date/timePositionNaut miles runAvg speedWind from/ knotsBaromVisibWave heightAir tempDewpointWater temp
2016-May-22 18:33N 01°26' E 104°31'2813.9
2016-May-22 16:33N 01°15' E 104°06'1313.2
2016-May-22 15:33N 01°12' E 103°53'8 7.5
2016-May-22 14:26N 01°16' E 103°46'0 0.0
2016-May-22 13:33N 01°16' E 103°46'0 0.0
2016-May-22 12:33N 01°16' E 103°46'0 0.0
2016-May-22 11:29N 01°16' E 103°46'0 0.0
2016-May-22 10:33N 01°16' E 103°46'0 0.0
2016-May-22 09:21N 01°16' E 103°46'0 0.0
2016-May-22 08:29N 01°16' E 103°46'0 0.0
2016-May-22 07:33N 01°16' E 103°46'0 0.0
2016-May-22 06:28N 01°16' E 103°46'0 0.0
2016-May-22 05:22N 01°16' E 103°46'0 0.0
2016-May-22 04:32N 01°16' E 103°46'0 0.0
2016-May-22 03:33N 01°16' E 103°46'0 0.1
2016-May-22 02:33N 01°16' E 103°46'1 1.2
2016-May-22 01:34N 01°15' E 103°47'3 3.0
2016-May-22 00:33N 01°13' E 103°49'0 0.1
2016-May-21 23:24N 01°13' E 103°49'0 0.0
2016-May-21 21:15N 01°13' E 103°49'0 0.0
2016-May-21 20:27N 01°13' E 103°49'0 0.0
2016-May-21 19:33N 01°13' E 103°49'0 0.0
2016-May-21 18:27N 01°13' E 103°49'0 0.0
2016-May-21 17:33N 01°13' E 103°49'0 0.0
2016-May-21 16:21N 01°13' E 103°49'0 0.1
2016-May-21 15:24N 01°13' E 103°49'1 1.0
2016-May-21 14:33N 01°13' E 103°49'8 7.7
2016-May-21 13:33N 01°13' E 103°41'10 1.3
2016-May-21 05:33N 01°20' E 103°33'2 2.0
2016-May-21 04:30N 01°22' E 103°33'0 0.0
2016-May-21 02:12N 01°22' E 103°33'0 0.0
2016-May-21 01:32N 01°22' E 103°33'0 0.0
2016-May-21 00:33N 01°22' E 103°33'0 0.0
2016-May-20 23:18N 01°22' E 103°33'0 0.0
2016-May-20 22:26N 01°22' E 103°33'0 0.0
2016-May-20 19:32N 01°22' E 103°33'0 0.0
2016-May-20 18:33N 01°22' E 103°33'0 0.0
2016-May-20 17:32N 01°22' E 103°33'6 5.8
2016-May-20 16:31N 01°16' E 103°33'5 5.4
2016-May-20 15:33N 01°12' E 103°36'6 6.1
2016-May-20 14:33N 01°10' E 103°42'1010.2
2016-May-20 13:33N 01°12' E 103°52'1312.5
2016-May-20 12:33N 01°16' E 104°04'  
2016-May-15 19:18N 01°15' E 104°05'912.6
2016-May-15 18:33N 01°12' E 103°55'8 8.4
2016-May-15 17:33N 01°14' E 103°47'3 2.4
2016-May-15 16:29N 01°16' E 103°46'0 0.0
2016-May-15 15:28N 01°16' E 103°46'0 0.1
2016-May-15 14:28N 01°16' E 103°46'0 0.0
2016-May-15 13:32N 01°16' E 103°46'0 0.1
2016-May-15 12:23N 01°16' E 103°46'0 0.0
2016-May-15 11:32N 01°16' E 103°46'0 0.1
2016-May-15 10:23N 01°16' E 103°46'0 0.0
2016-May-15 09:32N 01°16' E 103°46'0 0.1
2016-May-15 08:29N 01°16' E 103°46'0 0.1
2016-May-15 07:32N 01°16' E 103°46'0 0.1
2016-May-15 06:32N 01°16' E 103°46'0 0.0
2016-May-15 05:32N 01°16' E 103°46'0 0.0
2016-May-15 04:32N 01°16' E 103°46'0 0.0
2016-May-15 03:32N 01°16' E 103°46'0 0.0
2016-May-15 02:33N 01°16' E 103°46'0 0.0
2016-May-15 01:33N 01°16' E 103°46'0 0.1
2016-May-15 00:28N 01°16' E 103°46'0 0.1
2016-May-14 23:28N 01°16' E 103°46'0 0.1
2016-May-14 22:33N 01°16' E 103°46'4 3.9
2016-May-14 21:32N 01°13' E 103°49'0 0.1
2016-May-14 20:11N 01°13' E 103°49'0 0.0
2016-May-14 19:17N 01°13' E 103°49'0 0.1
2016-May-14 18:32N 01°13' E 103°49'0 0.2
2016-May-14 17:33N 01°13' E 103°48'5 5.4
2016-May-14 16:33N 01°14' E 103°43'8 7.7
2016-May-14 15:33N 01°12' E 103°36'7 6.6
2016-May-14 14:31N 01°15' E 103°29'2 0.5
2016-May-14 11:26N 01°15' E 103°31'5 6.3
2016-May-14 10:33N 01°20' E 103°33'2 0.1
2016-May-13 16:23N 01°22' E 103°33'5 5.7
2016-May-13 15:32N 01°17' E 103°33'6 6.4
2016-May-13 14:33N 01°12' E 103°37'9 9.5
2016-May-13 13:33N 01°09' E 103°46'1515.4
2016-May-13 12:34N 01°16' E 103°60'  

Dump ship's entire track history